Choshi, Japan
Current Conditions -  °F | °C
As of 11:30 PM on Friday 24 Oct 2014 (Local Time) from RJAA Reporting Station
Few Clouds Few Clouds  
Wind Chill: 50°   Ceiling: Unl
Heat Index: 50°   Visibility: 6mi
Dew Point: 48°   Wind: 1mph
Humidity: 94%   Direction: 170°S
Pressure: 30.18"   Gusts: NA
Location:  35.75°N, 140.81°E
Report Text: RJAA 241430Z 17001KT 9999 FEW040 10/09 Q1022 NOSIG
Loading
Personal Weather Stations






























Interactive Weather Map
Tropical Storm Tracking
New forecast layout! Learn more

10-Day Weather Forecast

Advertisements
Track Severe Weather on mobile